sensor_id;sensor_type;location;lat;lon;timestamp;pressure;altitude;pressure_sealevel;temperature;humidity
70589;BME280;58152;49.202;18.744;2023-03-12T00:01:57;96746.53;;;0.73;62.19
70589;BME280;58152;49.202;18.744;2023-03-12T00:04:24;96743.97;;;0.71;62.92
70589;BME280;58152;49.202;18.744;2023-03-12T00:06:49;96751.72;;;0.71;62.36
70589;BME280;58152;49.202;18.744;2023-03-12T00:09:15;96758.59;;;0.74;62.76
70589;BME280;58152;49.202;18.744;2023-03-12T00:11:40;96749.91;;;0.76;62.62
70589;BME280;58152;49.202;18.744;2023-03-12T00:14:06;96741.25;;;0.81;63.40
70589;BME280;58152;49.202;18.744;2023-03-12T00:16:31;96752.44;;;0.83;62.99
70589;BME280;58152;49.202;18.744;2023-03-12T00:18:57;96750.66;;;0.85;62.76
70589;BME280;58152;49.202;18.744;2023-03-12T00:21:22;96764.41;;;0.85;62.79
70589;BME280;58152;49.202;18.744;2023-03-12T00:23:48;96759.31;;;0.81;63.39
70589;BME280;58152;49.202;18.744;2023-03-12T00:26:14;96761.09;;;0.79;63.33
70589;BME280;58152;49.202;18.744;2023-03-12T00:28:40;96767.19;;;0.73;63.05
70589;BME280;58152;49.202;18.744;2023-03-12T00:31:32;96772.34;;;0.73;63.59
70589;BME280;58152;49.202;18.744;2023-03-12T00:33:59;96767.31;;;0.64;63.51
70589;BME280;58152;49.202;18.744;2023-03-12T00:36:28;96767.41;;;0.61;62.83
70589;BME280;58152;49.202;18.744;2023-03-12T00:38:55;96784.63;;;0.60;63.89
70589;BME280;58152;49.202;18.744;2023-03-12T00:41:22;96778.69;;;0.55;63.83
70589;BME280;58152;49.202;18.744;2023-03-12T00:43:49;96780.31;;;0.61;63.81
70589;BME280;58152;49.202;18.744;2023-03-12T00:46:15;96778.59;;;0.58;64.13
70589;BME280;58152;49.202;18.744;2023-03-12T00:48:41;96780.34;;;0.58;64.16
70589;BME280;58152;49.202;18.744;2023-03-12T00:51:07;96788.06;;;0.59;64.30
70589;BME280;58152;49.202;18.744;2023-03-12T00:53:34;96790.66;;;0.58;64.63
70589;BME280;58152;49.202;18.744;2023-03-12T00:55:59;96789.00;;;0.55;64.12
70589;BME280;58152;49.202;18.744;2023-03-12T00:58:25;96796.69;;;0.58;64.60
70589;BME280;58152;49.202;18.744;2023-03-12T01:00:51;96798.38;;;0.59;64.80
70589;BME280;58152;49.202;18.744;2023-03-12T01:03:17;96800.97;;;0.61;64.72
70589;BME280;58152;49.202;18.744;2023-03-12T01:05:43;96800.13;;;0.60;64.56
70589;BME280;58152;49.202;18.744;2023-03-12T01:08:09;96794.16;;;0.55;64.54
70589;BME280;58152;49.202;18.744;2023-03-12T01:10:36;96806.13;;;0.59;64.53
70589;BME280;58152;49.202;18.744;2023-03-12T01:13:02;96798.44;;;0.55;64.84
70589;BME280;58152;49.202;18.744;2023-03-12T01:15:28;96799.38;;;0.52;64.87
70589;BME280;58152;49.202;18.744;2023-03-12T01:17:54;96807.94;;;0.56;64.70
70589;BME280;58152;49.202;18.744;2023-03-12T01:20:19;96798.50;;;0.52;64.68
70589;BME280;58152;49.202;18.744;2023-03-12T01:22:47;96797.63;;;0.53;64.77
70589;BME280;58152;49.202;18.744;2023-03-12T01:25:12;96801.97;;;0.50;65.04
70589;BME280;58152;49.202;18.744;2023-03-12T01:27:38;96805.41;;;0.51;64.71
70589;BME280;58152;49.202;18.744;2023-03-12T01:30:04;96808.84;;;0.52;65.04
70589;BME280;58152;49.202;18.744;2023-03-12T01:32:30;96808.88;;;0.48;65.01
70589;BME280;58152;49.202;18.744;2023-03-12T01:34:56;96807.13;;;0.50;64.55
70589;BME280;58152;49.202;18.744;2023-03-12T01:37:22;96802.91;;;0.45;65.42
70589;BME280;58152;49.202;18.744;2023-03-12T01:39:47;96818.31;;;0.49;64.99
70589;BME280;58152;49.202;18.744;2023-03-12T01:42:13;96816.63;;;0.48;65.06
70589;BME280;58152;49.202;18.744;2023-03-12T01:47:16;96830.44;;;0.44;65.34
70589;BME280;58152;49.202;18.744;2023-03-12T01:49:42;96820.97;;;0.45;64.45
70589;BME280;58152;49.202;18.744;2023-03-12T01:52:10;96829.56;;;0.47;65.29
70589;BME280;58152;49.202;18.744;2023-03-12T01:54:40;96822.69;;;0.44;65.15
70589;BME280;58152;49.202;18.744;2023-03-12T02:00:13;96824.41;;;0.47;64.60
70589;BME280;58152;49.202;18.744;2023-03-12T02:02:41;96810.69;;;0.42;65.38
70589;BME280;58152;49.202;18.744;2023-03-12T02:05:54;96814.94;;;0.44;65.34
70589;BME280;58152;49.202;18.744;2023-03-12T02:08:22;96805.59;;;0.36;64.63
70589;BME280;58152;49.202;18.744;2023-03-12T02:10:47;96799.63;;;0.34;64.90
70589;BME280;58152;49.202;18.744;2023-03-12T02:13:13;96817.63;;;0.38;65.12
70589;BME280;58152;49.202;18.744;2023-03-12T02:15:39;96815.97;;;0.34;65.56
70589;BME280;58152;49.202;18.744;2023-03-12T02:18:07;96818.59;;;0.30;65.00
70589;BME280;58152;49.202;18.744;2023-03-12T02:21:24;96826.31;;;0.33;65.40
70589;BME280;58152;49.202;18.744;2023-03-12T02:23:29;96824.63;;;0.30;64.89
70589;BME280;58152;49.202;18.744;2023-03-12T02:25:57;96837.47;;;0.33;65.63
70589;BME280;58152;49.202;18.744;2023-03-12T02:28:26;96849.50;;;0.34;65.08
70589;BME280;58152;49.202;18.744;2023-03-12T02:30:57;96851.28;;;0.31;64.97
70589;BME280;58152;49.202;18.744;2023-03-12T02:33:24;96855.59;;;0.29;64.72
70589;BME280;58152;49.202;18.744;2023-03-12T02:35:51;96861.66;;;0.26;65.45
70589;BME280;58152;49.202;18.744;2023-03-12T02:38:45;96867.66;;;0.27;65.62
70589;BME280;58152;49.202;18.744;2023-03-12T02:41:26;96868.63;;;0.19;65.41
70589;BME280;58152;49.202;18.744;2023-03-12T02:44:07;96867.81;;;0.16;65.09
70589;BME280;58152;49.202;18.744;2023-03-12T02:46:40;96879.06;;;0.09;65.20
70589;BME280;58152;49.202;18.744;2023-03-12T02:49:05;96882.50;;;0.08;65.39
70589;BME280;58152;49.202;18.744;2023-03-12T02:51:31;96879.94;;;0.08;65.85
70589;BME280;58152;49.202;18.744;2023-03-12T02:53:57;96879.94;;;0.08;65.65
70589;BME280;58152;49.202;18.744;2023-03-12T02:56:24;96862.81;;;0.02;65.56
70589;BME280;58152;49.202;18.744;2023-03-12T02:58:50;96866.25;;;0.01;65.58
70589;BME280;58152;49.202;18.744;2023-03-12T03:01:16;96871.47;;;-0.05;66.13
70589;BME280;58152;49.202;18.744;2023-03-12T03:03:41;96883.50;;;-0.03;65.56
70589;BME280;58152;49.202;18.744;2023-03-12T03:06:07;96880.06;;;-0.05;65.10
70589;BME280;58152;49.202;18.744;2023-03-12T03:08:33;96881.81;;;-0.07;65.70
70589;BME280;58152;49.202;18.744;2023-03-12T03:10:58;96880.13;;;-0.11;65.83
70589;BME280;58152;49.202;18.744;2023-03-12T03:13:27;96887.03;;;-0.11;65.62
70589;BME280;58152;49.202;18.744;2023-03-12T03:15:53;96876.72;;;-0.14;65.31
70589;BME280;58152;49.202;18.744;2023-03-12T03:18:18;96894.78;;;-0.13;64.86
70589;BME280;58152;49.202;18.744;2023-03-12T03:20:44;96890.56;;;-0.21;65.74
70589;BME280;58152;49.202;18.744;2023-03-12T03:23:10;96900.88;;;-0.23;64.95
70589;BME280;58152;49.202;18.744;2023-03-12T03:25:35;96906.03;;;-0.23;65.29
70589;BME280;58152;49.202;18.744;2023-03-12T03:28:01;96916.34;;;-0.23;65.32
70589;BME280;58152;49.202;18.744;2023-03-12T03:30:26;96920.69;;;-0.25;65.32
70589;BME280;58152;49.202;18.744;2023-03-12T03:32:52;96916.44;;;-0.32;65.46
70589;BME280;58152;49.202;18.744;2023-03-12T03:35:17;96913.03;;;-0.34;64.94
70589;BME280;58152;49.202;18.744;2023-03-12T03:37:43;96917.34;;;-0.38;65.54
70589;BME280;58152;49.202;18.744;2023-03-12T03:40:09;96928.53;;;-0.39;64.97
70589;BME280;58152;49.202;18.744;2023-03-12T03:42:37;96922.56;;;-0.42;65.20
70589;BME280;58152;49.202;18.744;2023-03-12T03:45:04;96932.88;;;-0.42;65.53
70589;BME280;58152;49.202;18.744;2023-03-12T03:47:29;96938.03;;;-0.44;65.70
70589;BME280;58152;49.202;18.744;2023-03-12T03:49:55;96927.78;;;-0.52;65.50
70589;BME280;58152;49.202;18.744;2023-03-12T03:52:20;96930.41;;;-0.53;65.38
70589;BME280;58152;49.202;18.744;2023-03-12T03:54:46;96929.56;;;-0.58;65.14
70589;BME280;58152;49.202;18.744;2023-03-12T03:57:11;96927.06;;;-0.67;65.34
70589;BME280;58152;49.202;18.744;2023-03-12T03:59:37;96934.84;;;-0.73;65.80
70589;BME280;58152;49.202;18.744;2023-03-12T04:02:02;96940.00;;;-0.75;65.73
70589;BME280;58152;49.202;18.744;2023-03-12T04:04:29;96940.91;;;-0.79;65.78
70589;BME280;58152;49.202;18.744;2023-03-12T04:06:55;96946.91;;;-0.80;65.66
70589;BME280;58152;49.202;18.744;2023-03-12T04:09:21;96938.38;;;-0.85;65.20
70589;BME280;58152;49.202;18.744;2023-03-12T04:11:46;96943.50;;;-0.82;65.79
70589;BME280;58152;49.202;18.744;2023-03-12T04:14:11;96952.09;;;-0.82;65.00
70589;BME280;58152;49.202;18.744;2023-03-12T04:16:37;96949.53;;;-0.88;64.83
70589;BME280;58152;49.202;18.744;2023-03-12T04:19:02;96947.00;;;-0.92;65.23
70589;BME280;58152;49.202;18.744;2023-03-12T04:21:28;96956.44;;;-0.93;64.89
70589;BME280;58152;49.202;18.744;2023-03-12T04:23:53;96953.91;;;-0.99;65.43
70589;BME280;58152;49.202;18.744;2023-03-12T04:26:18;96958.19;;;-1.01;65.22
70589;BME280;58152;49.202;18.744;2023-03-12T04:28:44;96969.38;;;-1.02;65.35
70589;BME280;58152;49.202;18.744;2023-03-12T04:31:10;96974.53;;;-1.04;64.41
70589;BME280;58152;49.202;18.744;2023-03-12T04:33:38;96977.97;;;-1.03;64.88
70589;BME280;58152;49.202;18.744;2023-03-12T04:36:04;96978.84;;;-1.07;64.90
70589;BME280;58152;49.202;18.744;2023-03-12T04:38:30;96975.44;;;-1.12;64.90
70589;BME280;58152;49.202;18.744;2023-03-12T04:41:03;96979.72;;;-1.11;64.95
70589;BME280;58152;49.202;18.744;2023-03-12T04:43:30;96981.47;;;-1.16;64.49
70589;BME280;58152;49.202;18.744;2023-03-12T04:45:56;96990.06;;;-1.20;64.34
70589;BME280;58152;49.202;18.744;2023-03-12T04:48:23;96993.53;;;-1.21;65.43
70589;BME280;58152;49.202;18.744;2023-03-12T04:50:56;96994.41;;;-1.29;64.76
70589;BME280;58152;49.202;18.744;2023-03-12T04:53:22;97001.25;;;-1.26;65.26
70589;BME280;58152;49.202;18.744;2023-03-12T04:55:48;96997.84;;;-1.28;64.76
70589;BME280;58152;49.202;18.744;2023-03-12T04:58:13;97003.00;;;-1.28;65.16
70589;BME280;58152;49.202;18.744;2023-03-12T05:00:40;96996.16;;;-1.35;65.32
70589;BME280;58152;49.202;18.744;2023-03-12T05:03:05;97008.16;;;-1.33;65.20
70589;BME280;58152;49.202;18.744;2023-03-12T05:05:32;97009.88;;;-1.35;65.65
70589;BME280;58152;49.202;18.744;2023-03-12T05:08:00;97018.44;;;-1.30;65.64
70589;BME280;58152;49.202;18.744;2023-03-12T05:10:26;97019.31;;;-1.34;65.41
70589;BME280;58152;49.202;18.744;2023-03-12T05:12:51;97019.31;;;-1.32;65.77
70589;BME280;58152;49.202;18.744;2023-03-12T05:15:20;97015.91;;;-1.37;65.63
70589;BME280;58152;49.202;18.744;2023-03-12T05:17:46;97028.75;;;-1.36;65.77
70589;BME280;58152;49.202;18.744;2023-03-12T05:20:15;97031.34;;;-1.40;66.14
70589;BME280;58152;49.202;18.744;2023-03-12T05:22:42;97037.38;;;-1.46;65.76
70589;BME280;58152;49.202;18.744;2023-03-12T05:25:08;97035.66;;;-1.47;66.27
70589;BME280;58152;49.202;18.744;2023-03-12T05:27:34;97046.81;;;-1.52;66.28
70589;BME280;58152;49.202;18.744;2023-03-12T05:30:04;97053.69;;;-1.53;66.07
70589;BME280;58152;49.202;18.744;2023-03-12T05:32:30;97055.38;;;-1.47;66.56
70589;BME280;58152;49.202;18.744;2023-03-12T05:34:56;97056.25;;;-1.45;66.56
70589;BME280;58152;49.202;18.744;2023-03-12T05:37:21;97061.38;;;-1.42;66.37
70589;BME280;58152;49.202;18.744;2023-03-12T05:39:46;97059.66;;;-1.39;65.74
70589;BME280;58152;49.202;18.744;2023-03-12T05:42:13;97073.34;;;-1.34;66.25
70589;BME280;58152;49.202;18.744;2023-03-12T05:44:39;97072.50;;;-1.34;66.43
70589;BME280;58152;49.202;18.744;2023-03-12T05:47:06;97077.63;;;-1.30;66.07
70589;BME280;58152;49.202;18.744;2023-03-12T05:49:32;97078.50;;;-1.27;66.54
70589;BME280;58152;49.202;18.744;2023-03-12T05:51:57;97081.91;;;-1.25;66.61
70589;BME280;58152;49.202;18.744;2023-03-12T05:54:23;97082.78;;;-1.28;66.71
70589;BME280;58152;49.202;18.744;2023-03-12T05:56:49;97087.94;;;-1.23;66.38
70589;BME280;58152;49.202;18.744;2023-03-12T05:59:14;97093.06;;;-1.25;66.24
70589;BME280;58152;49.202;18.744;2023-03-12T06:01:40;97094.78;;;-1.22;66.26
70589;BME280;58152;49.202;18.744;2023-03-12T06:04:06;97091.34;;;-1.21;66.45
70589;BME280;58152;49.202;18.744;2023-03-12T06:06:33;97111.06;;;-1.13;66.66
70589;BME280;58152;49.202;18.744;2023-03-12T06:08:59;97100.75;;;-1.13;66.55
70589;BME280;58152;49.202;18.744;2023-03-12T06:11:24;97116.19;;;-1.07;66.85
70589;BME280;58152;49.202;18.744;2023-03-12T06:13:50;97117.91;;;-1.04;66.61
70589;BME280;58152;49.202;18.744;2023-03-12T06:16:18;97123.91;;;-1.00;66.67
70589;BME280;58152;49.202;18.744;2023-03-12T06:18:44;97120.47;;;-1.03;67.04
70589;BME280;58152;49.202;18.744;2023-03-12T06:21:15;97122.16;;;-0.98;66.74
70589;BME280;58152;49.202;18.744;2023-03-12T06:23:42;97123.88;;;-0.96;66.96
70589;BME280;58152;49.202;18.744;2023-03-12T06:26:09;97131.59;;;-0.91;66.51
70589;BME280;58152;49.202;18.744;2023-03-12T06:28:35;97128.16;;;-0.95;66.96
70589;BME280;58152;49.202;18.744;2023-03-12T06:31:00;97131.56;;;-0.88;67.51
70589;BME280;58152;49.202;18.744;2023-03-12T06:33:26;97123.84;;;-0.90;66.88
70589;BME280;58152;49.202;18.744;2023-03-12T06:35:55;97133.28;;;-0.89;66.47
70589;BME280;58152;49.202;18.744;2023-03-12T06:38:22;97139.31;;;-0.87;67.36
70589;BME280;58152;49.202;18.744;2023-03-12T06:41:01;97139.28;;;-0.85;66.45
70589;BME280;58152;49.202;18.744;2023-03-12T06:43:28;97148.69;;;-0.83;67.13
70589;BME280;58152;49.202;18.744;2023-03-12T06:45:56;97146.16;;;-0.81;66.79
70589;BME280;58152;49.202;18.744;2023-03-12T06:48:23;97150.44;;;-0.82;66.80
70589;BME280;58152;49.202;18.744;2023-03-12T06:50:48;97153.03;;;-0.82;66.87
70589;BME280;58152;49.202;18.744;2023-03-12T06:53:14;97162.44;;;-0.81;67.04
70589;BME280;58152;49.202;18.744;2023-03-12T06:55:39;97165.88;;;-0.79;66.92
70589;BME280;58152;49.202;18.744;2023-03-12T06:58:05;97159.91;;;-0.82;67.21
70589;BME280;58152;49.202;18.744;2023-03-12T07:00:31;97163.31;;;-0.80;66.55
70589;BME280;58152;49.202;18.744;2023-03-12T07:02:57;97159.88;;;-0.81;66.49
70589;BME280;58152;49.202;18.744;2023-03-12T07:05:26;97160.72;;;-0.83;66.26
70589;BME280;58152;49.202;18.744;2023-03-12T07:07:51;97167.63;;;-0.82;66.52
70589;BME280;58152;49.202;18.744;2023-03-12T07:10:17;97165.03;;;-0.85;66.25
70589;BME280;58152;49.202;18.744;2023-03-12T07:12:43;97170.19;;;-0.82;66.20
70589;BME280;58152;49.202;18.744;2023-03-12T07:15:09;97171.88;;;-0.80;65.83
70589;BME280;58152;49.202;18.744;2023-03-12T07:17:35;97166.75;;;-0.81;65.86
70589;BME280;58152;49.202;18.744;2023-03-12T07:20:00;97170.16;;;-0.79;66.17
70589;BME280;58152;49.202;18.744;2023-03-12T07:22:26;97165.00;;;-0.79;66.16
70589;BME280;58152;49.202;18.744;2023-03-12T07:24:51;97170.16;;;-0.76;66.02
70589;BME280;58152;49.202;18.744;2023-03-12T07:27:17;97161.59;;;-0.77;65.57
70589;BME280;58152;49.202;18.744;2023-03-12T07:29:43;97166.72;;;-0.72;65.40
70589;BME280;58152;49.202;18.744;2023-03-12T07:32:08;97165.84;;;-0.71;65.58
70589;BME280;58152;49.202;18.744;2023-03-12T07:34:34;97167.56;;;-0.70;65.02
70589;BME280;58152;49.202;18.744;2023-03-12T07:37:00;97160.69;;;-0.71;65.58
70589;BME280;58152;49.202;18.744;2023-03-12T07:39:26;97159.81;;;-0.70;65.41
70589;BME280;58152;49.202;18.744;2023-03-12T07:41:54;97164.97;;;-0.65;65.86
70589;BME280;58152;49.202;18.744;2023-03-12T07:44:19;97166.69;;;-0.63;65.64
70589;BME280;58152;49.202;18.744;2023-03-12T07:46:45;97168.38;;;-0.59;65.43
70589;BME280;58152;49.202;18.744;2023-03-12T07:49:10;97175.25;;;-0.59;65.16
70589;BME280;58152;49.202;18.744;2023-03-12T07:51:36;97170.09;;;-0.58;64.46
70589;BME280;58152;49.202;18.744;2023-03-12T07:54:01;97173.53;;;-0.54;64.94
70589;BME280;58152;49.202;18.744;2023-03-12T07:56:27;97163.19;;;-0.56;65.25
70589;BME280;58152;49.202;18.744;2023-03-12T07:58:53;97173.47;;;-0.46;65.11
70589;BME280;58152;49.202;18.744;2023-03-12T08:01:18;97166.59;;;-0.46;64.70
70589;BME280;58152;49.202;18.744;2023-03-12T08:03:43;97182.03;;;-0.41;64.81
70589;BME280;58152;49.202;18.744;2023-03-12T08:06:09;97170.84;;;-0.37;65.12
70589;BME280;58152;49.202;18.744;2023-03-12T08:08:34;97168.25;;;-0.34;64.71
70589;BME280;58152;49.202;18.744;2023-03-12T08:11:03;97176.78;;;-0.28;64.56
70589;BME280;58152;49.202;18.744;2023-03-12T08:13:29;97173.34;;;-0.22;64.41
70589;BME280;58152;49.202;18.744;2023-03-12T08:15:55;97168.16;;;-0.16;64.42
70589;BME280;58152;49.202;18.744;2023-03-12T08:18:20;97160.38;;;-0.11;65.25
70589;BME280;58152;49.202;18.744;2023-03-12T08:20:52;97171.47;;;0.02;65.00
70589;BME280;58152;49.202;18.744;2023-03-12T08:23:18;97178.28;;;0.09;65.03
70589;BME280;58152;49.202;18.744;2023-03-12T08:25:48;97185.13;;;0.16;63.90
70589;BME280;58152;49.202;18.744;2023-03-12T08:28:14;97179.97;;;0.16;64.19
70589;BME280;58152;49.202;18.744;2023-03-12T08:30:47;97186.84;;;0.17;64.40
70589;BME280;58152;49.202;18.744;2023-03-12T08:33:14;97187.72;;;0.16;64.30
70589;BME280;58152;49.202;18.744;2023-03-12T08:35:39;97194.56;;;0.20;63.87
70589;BME280;58152;49.202;18.744;2023-03-12T08:38:05;97182.53;;;0.17;63.56
70589;BME280;58152;49.202;18.744;2023-03-12T08:40:31;97190.28;;;0.20;63.75
70589;BME280;58152;49.202;18.744;2023-03-12T08:42:56;97183.38;;;0.21;63.98
70589;BME280;58152;49.202;18.744;2023-03-12T08:45:22;97185.09;;;0.22;63.71
70589;BME280;58152;49.202;18.744;2023-03-12T08:47:47;97183.34;;;0.25;63.74
70589;BME280;58152;49.202;18.744;2023-03-12T08:50:13;97177.34;;;0.25;64.00
70589;BME280;58152;49.202;18.744;2023-03-12T08:52:41;97177.34;;;0.23;63.33
70589;BME280;58152;49.202;18.744;2023-03-12T08:55:07;97173.94;;;0.20;62.89
70589;BME280;58152;49.202;18.744;2023-03-12T08:57:32;97176.50;;;0.23;63.09
70589;BME280;58152;49.202;18.744;2023-03-12T08:59:58;97182.47;;;0.27;62.82
70589;BME280;58152;49.202;18.744;2023-03-12T09:02:23;97181.63;;;0.26;63.10
70589;BME280;58152;49.202;18.744;2023-03-12T09:04:49;97190.16;;;0.34;63.03
70589;BME280;58152;49.202;18.744;2023-03-12T09:07:15;97190.16;;;0.36;62.86
70589;BME280;58152;49.202;18.744;2023-03-12T09:09:43;97181.56;;;0.37;62.93
70589;BME280;58152;49.202;18.744;2023-03-12T09:12:10;97192.66;;;0.45;62.76
70589;BME280;58152;49.202;18.744;2023-03-12T09:14:35;97190.03;;;0.51;62.70
70589;BME280;58152;49.202;18.744;2023-03-12T09:17:01;97189.13;;;0.57;62.22
70589;BME280;58152;49.202;18.744;2023-03-12T09:19:27;97183.09;;;0.58;62.30
70589;BME280;58152;49.202;18.744;2023-03-12T09:21:52;97178.72;;;0.66;62.39
70589;BME280;58152;49.202;18.744;2023-03-12T09:24:18;97188.94;;;0.76;61.97
70589;BME280;58152;49.202;18.744;2023-03-12T09:26:43;97182.88;;;0.81;62.68
70589;BME280;58152;49.202;18.744;2023-03-12T09:29:09;97182.81;;;0.88;61.75
70589;BME280;58152;49.202;18.744;2023-03-12T09:31:34;97184.44;;;0.95;61.47
70589;BME280;58152;49.202;18.744;2023-03-12T09:34:01;97179.25;;;0.98;61.34
70589;BME280;58152;49.202;18.744;2023-03-12T09:36:26;97181.72;;;1.09;61.46
70589;BME280;58152;49.202;18.744;2023-03-12T09:38:53;97181.56;;;1.26;61.72
70589;BME280;58152;49.202;18.744;2023-03-12T09:41:27;97179.47;;;1.54;61.65
70589;BME280;58152;49.202;18.744;2023-03-12T09:43:57;97179.25;;;1.72;61.54
70589;BME280;58152;49.202;18.744;2023-03-12T09:46:32;97187.75;;;1.84;61.06
70589;BME280;58152;49.202;18.744;2023-03-12T09:49:01;97169.31;;;2.05;60.09
70589;BME280;58152;49.202;18.744;2023-03-12T09:51:33;97175.00;;;2.28;59.88
70589;BME280;58152;49.202;18.744;2023-03-12T09:54:02;97164.50;;;2.39;59.76
70589;BME280;58152;49.202;18.744;2023-03-12T09:56:32;97166.59;;;2.68;59.34
70589;BME280;58152;49.202;18.744;2023-03-12T09:58:58;97166.31;;;2.85;58.53
70589;BME280;58152;49.202;18.744;2023-03-12T10:01:35;97171.88;;;3.10;58.43
70589;BME280;58152;49.202;18.744;2023-03-12T10:14:43;97164.25;;;3.88;56.04
70589;BME280;58152;49.202;18.744;2023-03-12T10:17:24;97172.38;;;4.11;55.61
70589;BME280;58152;49.202;18.744;2023-03-12T10:25:28;97165.66;;;4.40;54.61
70589;BME280;58152;49.202;18.744;2023-03-12T10:28:10;97165.53;;;4.44;54.45
70589;BME280;58152;49.202;18.744;2023-03-12T10:30:40;97156.56;;;4.57;54.08
70589;BME280;58152;49.202;18.744;2023-03-12T10:33:11;97160.56;;;4.71;53.14
70589;BME280;58152;49.202;18.744;2023-03-12T10:35:38;97154.19;;;4.84;53.22
70589;BME280;58152;49.202;18.744;2023-03-12T10:38:09;97167.53;;;5.04;51.90
70589;BME280;58152;49.202;18.744;2023-03-12T10:40:39;97166.09;;;5.25;51.68
70589;BME280;58152;49.202;18.744;2023-03-12T10:43:05;97147.41;;;5.42;51.79
70589;BME280;58152;49.202;18.744;2023-03-12T10:45:38;97155.34;;;5.67;51.15
70589;BME280;58152;49.202;18.744;2023-03-12T10:48:09;97138.50;;;5.80;51.12
70589;BME280;58152;49.202;18.744;2023-03-12T10:50:38;97145.41;;;6.11;50.98
70589;BME280;58152;49.202;18.744;2023-03-12T10:53:28;97154.97;;;6.39;49.98
70589;BME280;58152;49.202;18.744;2023-03-12T10:56:05;97147.09;;;6.40;48.90
70589;BME280;58152;49.202;18.744;2023-03-12T10:58:40;97141.13;;;6.36;48.62
70589;BME280;58152;49.202;18.744;2023-03-12T11:03:44;97138.88;;;6.79;49.25
70589;BME280;58152;49.202;18.744;2023-03-12T11:06:20;97133.84;;;6.99;47.81
70589;BME280;58152;49.202;18.744;2023-03-12T11:09:17;97141.59;;;7.26;46.90
70589;BME280;58152;49.202;18.744;2023-03-12T11:11:51;97143.72;;;7.39;47.15
70589;BME280;58152;49.202;18.744;2023-03-12T11:14:31;97139.78;;;7.28;46.68
70589;BME280;58152;49.202;18.744;2023-03-12T11:17:23;97142.38;;;7.28;45.66
70589;BME280;58152;49.202;18.744;2023-03-12T11:19:49;97142.91;;;7.37;48.29
70589;BME280;58152;49.202;18.744;2023-03-12T11:22:30;97133.50;;;7.80;46.33
70589;BME280;58152;49.202;18.744;2023-03-12T11:24:56;97138.53;;;8.08;47.45
70589;BME280;58152;49.202;18.744;2023-03-12T11:27:40;97137.81;;;8.27;46.16
70589;BME280;58152;49.202;18.744;2023-03-12T11:30:11;97148.78;;;8.36;46.58
70589;BME280;58152;49.202;18.744;2023-03-12T11:32:44;97138.50;;;8.54;45.70
70589;BME280;58152;49.202;18.744;2023-03-12T11:35:16;97146.19;;;8.79;45.75
70589;BME280;58152;49.202;18.744;2023-03-12T11:37:56;97149.75;;;8.98;44.80
70589;BME280;58152;49.202;18.744;2023-03-12T11:43:21;97144.19;;;9.26;44.20
70589;BME280;58152;49.202;18.744;2023-03-12T11:49:15;97142.72;;;8.78;44.49
70589;BME280;58152;49.202;18.744;2023-03-12T11:52:23;97141.78;;;8.59;38.86
70589;BME280;58152;49.202;18.744;2023-03-12T11:55:16;97137.72;;;8.94;40.61
70589;BME280;58152;49.202;18.744;2023-03-12T11:58:19;97143.47;;;9.23;39.51
70589;BME280;58152;49.202;18.744;2023-03-12T12:03:38;97143.03;;;9.52;42.00
70589;BME280;58152;49.202;18.744;2023-03-12T12:06:29;97142.16;;;9.72;42.19
70589;BME280;58152;49.202;18.744;2023-03-12T12:09:19;97140.50;;;10.07;39.27
70589;BME280;58152;49.202;18.744;2023-03-12T12:12:10;97136.25;;;10.24;41.02
70589;BME280;58152;49.202;18.744;2023-03-12T12:17:46;97127.28;;;10.10;40.65
70589;BME280;58152;49.202;18.744;2023-03-12T12:20:20;97136.28;;;10.42;40.41
70589;BME280;58152;49.202;18.744;2023-03-12T12:26:12;97131.91;;;11.12;37.87
70589;BME280;58152;49.202;18.744;2023-03-12T12:31:36;97125.56;;;11.51;39.73
70589;BME280;58152;49.202;18.744;2023-03-12T12:34:34;97133.44;;;11.34;37.16
70589;BME280;58152;49.202;18.744;2023-03-12T12:37:23;97132.63;;;11.16;36.90
70589;BME280;58152;49.202;18.744;2023-03-12T12:40:20;97127.84;;;11.24;36.74
70589;BME280;58152;49.202;18.744;2023-03-12T12:43:54;97125.56;;;11.67;37.31
70589;BME280;58152;49.202;18.744;2023-03-12T12:45:50;97119.56;;;10.62;40.03
70589;BME280;58152;49.202;18.744;2023-03-12T12:50:54;97120.59;;;11.78;39.43
70589;BME280;58152;49.202;18.744;2023-03-12T12:56:19;97135.34;;;11.65;38.39
70589;BME280;58152;49.202;18.744;2023-03-12T13:01:13;97119.50;;;13.21;36.62
70589;BME280;58152;49.202;18.744;2023-03-12T13:03:39;97112.44;;;13.81;36.21
70589;BME280;58152;49.202;18.744;2023-03-12T13:06:07;97122.56;;;14.57;35.28
70589;BME280;58152;49.202;18.744;2023-03-12T13:13:48;97122.75;;;16.22;32.52
70589;BME280;58152;49.202;18.744;2023-03-12T13:16:35;97125.69;;;16.91;28.80
70589;BME280;58152;49.202;18.744;2023-03-12T13:24:27;97128.63;;;17.68;30.29
70589;BME280;58152;49.202;18.744;2023-03-12T13:27:23;97132.41;;;18.22;26.03
70589;BME280;58152;49.202;18.744;2023-03-12T13:29:49;97112.81;;;18.45;30.49
70589;BME280;58152;49.202;18.744;2023-03-12T13:34:58;97119.34;;;18.52;29.67
70589;BME280;58152;49.202;18.744;2023-03-12T13:40:38;97110.56;;;18.18;25.20
70589;BME280;58152;49.202;18.744;2023-03-12T13:45:33;97107.19;;;17.71;30.05
70589;BME280;58152;49.202;18.744;2023-03-12T13:48:13;97108.97;;;17.48;27.33
70589;BME280;58152;49.202;18.744;2023-03-12T13:50:49;97111.13;;;17.08;28.13
70589;BME280;58152;49.202;18.744;2023-03-12T13:53:27;97115.03;;;16.67;28.68
70589;BME280;58152;49.202;18.744;2023-03-12T13:56:02;97119.50;;;16.67;26.71
70589;BME280;58152;49.202;18.744;2023-03-12T13:58:29;97116.25;;;16.63;29.64
70589;BME280;58152;49.202;18.744;2023-03-12T14:01:05;97111.00;;;16.50;26.77
70589;BME280;58152;49.202;18.744;2023-03-12T14:03:38;97107.22;;;16.42;28.66
70589;BME280;58152;49.202;18.744;2023-03-12T14:06:17;97099.09;;;16.32;26.45
70589;BME280;58152;49.202;18.744;2023-03-12T14:17:31;97106.09;;;15.71;24.70
70589;BME280;58152;49.202;18.744;2023-03-12T14:20:04;97104.50;;;15.68;26.36
70589;BME280;58152;49.202;18.744;2023-03-12T14:22:38;97114.41;;;15.52;28.59
70589;BME280;58152;49.202;18.744;2023-03-12T14:25:22;97111.38;;;15.45;26.55